Time;durP1;ratioP1;P1;durP2;ratioP2;P2;SDS_P1;SDS_P2;PMS_P1;PMS_P2;Temp;Humidity;BMP_temperature;BMP_pressure;BME280_temperature;BME280_humidity;BME280_pressure;Samples;Min_cycle;Max_cycle;Signal;HPM_P1;HPM_P2
2022/01/08 00:00:32;;;;;;;10.85;7.93;;;;;;;14.50;39.87;92962.66;4948450;28;20380;-83
2022/01/08 00:02:58;;;;;;;11.73;7.70;;;;;;;14.51;40.14;92964.09;4948626;28;20394;-83
2022/01/08 00:05:23;;;;;;;10.30;8.48;;;;;;;14.50;40.46;92968.09;4948985;28;20043;-83
2022/01/08 00:07:49;;;;;;;9.95;7.30;;;;;;;14.47;40.37;92967.09;4932688;28;20130;-83
2022/01/08 00:10:14;;;;;;;9.45;7.40;;;;;;;14.43;40.26;92972.03;4947899;28;20039;-84
2022/01/08 00:12:40;;;;;;;12.48;8.10;;;;;;;14.46;40.54;92956.72;4932687;28;20058;-83
2022/01/08 00:15:06;;;;;;;11.45;8.10;;;;;;;14.44;40.43;92968.06;4948207;28;20043;-84
2022/01/08 00:17:33;;;;;;;10.27;7.45;;;;;;;14.36;40.64;92961.63;4917369;29;20028;-84
2022/01/08 00:19:58;;;;;;;9.50;7.50;;;;;;;14.43;40.63;92957.69;4932595;28;20035;-84
2022/01/08 00:22:23;;;;;;;10.27;8.00;;;;;;;14.42;40.27;92956.22;4948059;28;20371;-84
2022/01/08 00:24:52;;;;;;;10.43;7.97;;;;;;;14.47;40.27;92958.19;4948116;28;20418;-84
2022/01/08 00:27:22;;;;;;;9.73;7.75;;;;;;;14.50;40.18;92957.19;4932473;28;20035;-84
2022/01/08 00:29:47;;;;;;;9.90;7.53;;;;;;;14.52;40.01;92949.25;4932824;28;20067;-84
2022/01/08 00:32:14;;;;;;;12.15;7.85;;;;;;;14.42;40.57;92954.22;4931718;28;20051;-83
2022/01/08 00:34:40;;;;;;;9.77;7.22;;;;;;;14.44;40.31;92951.03;4949909;28;20115;-84
2022/01/08 00:37:06;;;;;;;8.88;6.57;;;;;;;14.44;40.38;92945.59;4947490;28;20044;-83
2022/01/08 00:39:32;;;;;;;12.88;8.32;;;;;;;14.41;40.53;92947.31;4948232;28;20491;-83
2022/01/08 00:41:57;;;;;;;10.63;8.02;;;;;;;14.38;40.25;92956.44;4950509;28;20039;-83
2022/01/08 00:44:23;;;;;;;11.48;8.23;;;;;;;14.37;40.87;92949.50;4935391;28;20040;-84
2022/01/08 00:46:48;;;;;;;10.77;7.95;;;;;;;14.40;40.48;92943.84;4936153;28;20487;-83
2022/01/08 00:49:13;;;;;;;10.80;7.80;;;;;;;14.41;40.53;92944.59;4951582;28;20047;-84
2022/01/08 00:51:39;;;;;;;9.30;6.47;;;;;;;14.37;40.71;92942.09;4951633;28;20032;-83
2022/01/08 00:54:04;;;;;;;10.20;8.18;;;;;;;14.37;40.79;92939.38;4951430;28;20372;-83
2022/01/08 00:56:30;;;;;;;8.73;6.38;;;;;;;14.48;40.19;92941.38;4919640;29;20078;-84
2022/01/08 00:58:55;;;;;;;10.20;7.10;;;;;;;14.45;40.44;92936.94;4936226;28;20384;-83
2022/01/08 01:01:20;;;;;;;11.48;7.63;;;;;;;14.40;40.27;92945.78;4950512;28;20043;-83
2022/01/08 01:03:46;;;;;;;10.40;6.88;;;;;;;14.41;40.75;92936.44;4951713;28;20031;-84
2022/01/08 01:06:11;;;;;;;10.40;7.28;;;;;;;14.40;40.50;92937.63;4919082;28;20043;-83
2022/01/08 01:08:36;;;;;;;10.75;8.07;;;;;;;14.42;40.43;92926.31;4935752;29;20458;-83
2022/01/08 01:11:02;;;;;;;12.05;9.05;;;;;;;14.47;40.50;92931.75;4935227;28;20047;-84
2022/01/08 01:13:27;;;;;;;10.80;7.75;;;;;;;14.48;40.07;92930.50;4935268;28;20303;-84
2022/01/08 01:15:53;;;;;;;8.60;6.72;;;;;;;14.50;39.84;92919.88;4935755;28;20035;-83
2022/01/08 01:18:18;;;;;;;10.50;7.03;;;;;;;14.46;40.30;92927.53;4934716;28;20046;-84
2022/01/08 01:20:43;;;;;;;10.18;7.18;;;;;;;14.48;40.41;92927.78;4951394;28;20094;-83
2022/01/08 01:23:14;;;;;;;10.60;7.32;;;;;;;14.37;40.52;92925.78;4950849;28;20032;-84
2022/01/08 01:25:49;;;;;;;9.53;6.43;;;;;;;14.37;40.61;92914.91;4951179;28;20027;-83
2022/01/08 01:28:30;;;;;;;9.50;7.40;;;;;;;14.35;40.48;92909.22;4936250;28;20369;-83
2022/01/08 01:47:10;;;;;;;12.57;8.07;;;;;;;14.35;40.74;92897.59;4942649;28;20049;-84
2022/01/08 01:49:38;;;;;;;10.25;7.72;;;;;;;14.41;40.26;92898.38;4934946;28;20035;-84
2022/01/08 01:52:04;;;;;;;9.82;7.55;;;;;;;14.42;40.71;92890.94;4934374;28;20047;-84
2022/01/08 01:54:30;;;;;;;12.43;7.85;;;;;;;14.47;40.34;92887.47;4918824;29;20105;-84
2022/01/08 01:56:57;;;;;;;9.25;7.28;;;;;;;14.42;40.53;92888.22;4934759;28;20539;-84
2022/01/08 01:59:23;;;;;;;9.35;6.88;;;;;;;14.39;40.53;92879.78;4922299;28;20035;-83
2022/01/08 02:01:48;;;;;;;12.77;8.50;;;;;;;14.42;40.72;92877.34;4937871;28;20037;-84
2022/01/08 02:04:14;;;;;;;9.13;7.28;;;;;;;14.49;40.20;92888.47;4953135;28;20043;-84
2022/01/08 02:06:39;;;;;;;10.23;7.72;;;;;;;14.39;40.64;92871.63;4971144;28;20333;-83
2022/01/08 02:09:04;;;;;;;10.45;7.20;;;;;;;14.44;40.39;92874.88;4969806;28;20050;-84
2022/01/08 02:11:30;;;;;;;10.82;8.35;;;;;;;14.50;40.29;92883.78;4968226;28;20457;-83
2022/01/08 02:14:04;;;;;;;10.13;7.32;;;;;;;14.47;40.10;92868.44;4966869;28;20053;-83
2022/01/08 02:16:30;;;;;;;10.27;7.88;;;;;;;14.42;40.47;92872.66;4944809;28;20486;-84
2022/01/08 02:18:55;;;;;;;10.68;7.60;;;;;;;14.47;40.41;92868.44;4970805;28;20131;-84
2022/01/08 02:21:20;;;;;;;10.57;7.53;;;;;;;14.46;40.75;92870.44;4953081;28;20043;-84
2022/01/08 02:23:48;;;;;;;9.15;7.00;;;;;;;14.39;40.72;92868.19;4953457;28;20031;-84
2022/01/08 02:26:14;;;;;;;9.77;7.32;;;;;;;14.36;40.69;92863.72;4936886;28;20039;-83
2022/01/08 02:28:40;;;;;;;9.35;7.10;;;;;;;14.37;40.35;92859.78;4937798;28;20442;-83
2022/01/08 02:31:05;;;;;;;9.85;7.57;;;;;;;14.44;40.36;92861.28;4937215;28;20027;-84
2022/01/08 02:33:31;;;;;;;9.90;8.43;;;;;;;14.38;40.66;92859.28;4937322;28;20560;-83
2022/01/08 02:35:56;;;;;;;9.68;6.80;;;;;;;14.47;40.26;92858.31;4952874;28;20397;-84
2022/01/08 02:38:23;;;;;;;8.88;7.03;;;;;;;14.40;40.36;92853.34;4936963;28;20042;-84
2022/01/08 02:40:56;;;;;;;9.85;7.53;;;;;;;14.42;40.51;92863.75;4934237;28;20135;-84
2022/01/08 02:43:22;;;;;;;9.73;7.28;;;;;;;14.40;40.83;92856.06;4919247;28;20083;-84
2022/01/08 02:45:48;;;;;;;10.75;7.93;;;;;;;14.37;40.62;92851.63;4934324;28;20458;-84
2022/01/08 02:48:13;;;;;;;7.72;6.38;;;;;;;14.44;40.11;92853.13;4918110;28;20330;-84
2022/01/08 02:50:39;;;;;;;9.35;6.90;;;;;;;14.37;40.60;92851.63;4951163;28;20043;-84
2022/01/08 02:53:07;;;;;;;8.93;7.53;;;;;;;14.40;40.53;92845.19;4917459;28;20247;-83
2022/01/08 02:55:33;;;;;;;9.43;7.25;;;;;;;14.45;40.57;92844.47;4934409;28;20553;-83
2022/01/08 02:57:58;;;;;;;9.93;7.82;;;;;;;14.39;40.88;92835.56;4933520;29;20063;-83
2022/01/08 03:00:23;;;;;;;9.13;7.03;;;;;;;14.43;40.59;92835.31;4936016;28;20474;-84
2022/01/08 03:02:50;;;;;;;9.43;6.53;;;;;;;14.40;40.91;92834.31;4920990;28;20046;-84
2022/01/08 03:05:15;;;;;;;9.48;7.28;;;;;;;14.38;40.59;92820.47;4935971;28;20045;-83
2022/01/08 03:07:42;;;;;;;10.65;7.75;;;;;;;14.37;40.36;92816.28;4936716;28;20035;-84
2022/01/08 03:10:08;;;;;;;9.20;6.93;;;;;;;14.36;40.70;92820.97;4936099;28;20055;-84
2022/01/08 03:12:38;;;;;;;9.73;7.15;;;;;;;14.39;40.34;92816.53;4920960;28;20058;-83
2022/01/08 03:15:04;;;;;;;8.98;7.13;;;;;;;14.37;40.39;92811.56;4952822;28;20406;-83
2022/01/08 03:17:30;;;;;;;9.23;6.25;;;;;;;14.45;40.64;92802.94;4936526;28;20073;-84
2022/01/08 03:20:02;;;;;;;9.40;7.68;;;;;;;14.40;40.39;92802.44;4952158;28;20535;-84
2022/01/08 03:22:28;;;;;;;8.63;6.32;;;;;;;14.47;40.22;92808.63;4953183;28;20097;-84
2022/01/08 03:24:54;;;;;;;10.60;7.53;;;;;;;14.40;40.67;92807.88;4936460;28;20042;-84
2022/01/08 03:27:19;;;;;;;9.48;6.90;;;;;;;14.47;40.37;92798.47;4936397;28;20043;-84
2022/01/08 03:29:44;;;;;;;10.50;7.10;;;;;;;14.40;40.78;92794.28;4936300;28;20039;-84
2022/01/08 03:32:10;;;;;;;8.80;6.50;;;;;;;14.45;40.50;92790.09;4935422;28;20562;-84
2022/01/08 03:34:35;;;;;;;8.82;6.43;;;;;;;14.49;40.40;92790.56;4936561;28;20218;-84
2022/01/08 03:37:01;;;;;;;7.63;6.32;;;;;;;14.45;40.55;92786.63;4936203;28;20043;-83
2022/01/08 03:39:26;;;;;;;8.95;7.15;;;;;;;14.44;40.72;92779.69;4916837;29;20043;-84
2022/01/08 03:41:52;;;;;;;9.73;7.30;;;;;;;14.40;40.55;92777.97;4917522;29;20102;-84
2022/01/08 03:44:18;;;;;;;8.73;6.68;;;;;;;14.45;40.54;92781.19;4916225;28;20086;-84
2022/01/08 03:46:43;;;;;;;10.02;7.03;;;;;;;14.38;40.68;92777.72;4933066;28;20511;-84
2022/01/08 03:49:22;;;;;;;9.75;6.78;;;;;;;14.46;40.76;92777.97;4927361;28;20429;-84
2022/01/08 03:51:48;;;;;;;9.25;6.68;;;;;;;14.43;40.47;92764.63;4952267;28;20494;-84
2022/01/08 03:54:14;;;;;;;10.07;6.72;;;;;;;14.42;40.38;92776.75;4935129;28;20046;-83
2022/01/08 03:56:39;;;;;;;8.32;6.18;;;;;;;14.44;40.70;92766.84;4920669;28;20030;-84
2022/01/08 03:59:04;;;;;;;10.07;7.70;;;;;;;14.42;40.68;92765.88;4968613;28;20042;-84
2022/01/08 04:01:30;;;;;;;8.55;6.15;;;;;;;14.45;40.55;92768.34;4951536;28;20482;-83
2022/01/08 04:03:56;;;;;;;9.27;7.35;;;;;;;14.40;40.74;92777.97;4951423;28;20051;-83
2022/01/08 04:06:22;;;;;;;9.45;7.03;;;;;;;14.38;40.19;92775.00;4951438;28;20045;-83
2022/01/08 04:08:47;;;;;;;11.63;6.82;;;;;;;14.37;40.60;92761.91;4936035;28;20047;-84
2022/01/08 04:11:12;;;;;;;7.93;5.90;;;;;;;14.36;40.98;92768.56;4919832;28;20517;-84
2022/01/08 04:13:41;;;;;;;8.77;6.55;;;;;;;14.45;40.70;92767.59;4951816;28;20086;-84
2022/01/08 04:16:14;;;;;;;8.80;6.88;;;;;;;14.52;40.46;92764.31;4951314;28;20457;-84
2022/01/08 04:18:39;;;;;;;8.95;7.53;;;;;;;14.51;40.25;92760.88;4921741;28;20442;-84
2022/01/08 04:23:49;;;;;;;9.00;6.97;;;;;;;14.54;40.37;92751.72;4954062;28;20399;-83
2022/01/08 04:26:14;;;;;;;8.07;6.85;;;;;;;14.49;40.32;92754.47;4950811;28;20123;-84
2022/01/08 04:28:40;;;;;;;10.68;8.05;;;;;;;14.46;40.61;92742.63;4935716;28;20041;-83
2022/01/08 04:31:05;;;;;;;8.82;5.63;;;;;;;14.48;40.12;92750.28;4951056;28;20090;-83
2022/01/08 04:33:31;;;;;;;8.85;6.82;;;;;;;14.54;40.13;92750.97;4935692;28;20391;-84
2022/01/08 04:35:56;;;;;;;9.13;6.75;;;;;;;14.49;40.41;92755.22;4935574;28;20046;-84
2022/01/08 04:38:22;;;;;;;7.72;5.68;;;;;;;14.52;40.38;92756.16;4951174;28;20050;-83
2022/01/08 04:40:47;;;;;;;8.90;7.03;;;;;;;14.44;40.48;92752.50;4915429;29;20400;-83
2022/01/08 04:43:13;;;;;;;12.23;6.90;;;;;;;14.40;40.60;92747.31;4933411;28;20046;-84
2022/01/08 04:45:39;;;;;;;8.18;6.22;;;;;;;14.44;40.72;92749.78;4951800;28;20494;-84
2022/01/08 04:48:07;;;;;;;9.63;6.93;;;;;;;14.49;40.70;92744.34;4950776;28;20054;-84
2022/01/08 04:50:32;;;;;;;8.75;6.43;;;;;;;14.55;40.16;92747.00;4952159;28;20533;-84
2022/01/08 04:52:58;;;;;;;7.97;6.05;;;;;;;14.41;40.75;92743.38;4935655;28;20369;-84
2022/01/08 04:55:23;;;;;;;11.35;7.82;;;;;;;14.46;40.82;92747.31;4934802;28;20027;-84
2022/01/08 04:57:48;;;;;;;8.63;6.25;;;;;;;14.38;40.93;92747.06;4951498;28;20031;-84
2022/01/08 05:00:15;;;;;;;7.57;5.63;;;;;;;14.44;40.53;92752.50;4918627;28;20082;-84
2022/01/08 05:02:40;;;;;;;7.88;6.20;;;;;;;14.44;40.64;92752.50;4935635;28;20038;-84
2022/01/08 05:05:06;;;;;;;8.00;5.97;;;;;;;14.40;40.95;92763.63;4934601;28;20043;-84
2022/01/08 05:07:32;;;;;;;9.85;6.57;;;;;;;14.45;40.58;92756.72;4951194;28;20486;-84
2022/01/08 05:09:57;;;;;;;11.13;7.88;;;;;;;14.47;40.63;92757.69;4935549;28;20077;-84
2022/01/08 05:12:23;;;;;;;9.70;7.38;;;;;;;14.44;40.65;92752.50;4950539;28;20042;-84
2022/01/08 05:14:48;;;;;;;9.70;7.15;;;;;;;14.47;40.58;92746.81;4951187;28;20034;-83
2022/01/08 05:17:14;;;;;;;10.82;6.45;;;;;;;14.47;40.56;92749.53;4951147;28;20130;-84
2022/01/08 05:19:50;;;;;;;8.80;6.57;;;;;;;14.44;40.69;92747.06;4935552;28;20039;-84
2022/01/08 05:22:24;;;;;;;8.27;6.07;;;;;;;14.41;40.89;92743.38;4937567;28;20050;-83
2022/01/08 05:24:49;;;;;;;7.93;6.20;;;;;;;14.44;40.52;92733.47;4936834;28;20541;-83
2022/01/08 05:27:17;;;;;;;7.55;6.30;;;;;;;14.49;40.63;92736.19;4950901;28;20054;-83
2022/01/08 05:29:44;;;;;;;8.02;6.07;;;;;;;14.50;40.43;92734.94;4938774;28;20103;-84
2022/01/08 05:32:16;;;;;;;9.10;6.75;;;;;;;14.44;40.86;92728.03;4938025;28;20047;-82
2022/01/08 05:34:41;;;;;;;7.90;6.20;;;;;;;14.45;40.51;92724.81;4939396;28;20027;-82
2022/01/08 05:37:07;;;;;;;8.73;6.80;;;;;;;14.38;40.58;92723.31;4937669;28;20038;-81
2022/01/08 05:39:34;;;;;;;9.63;7.00;;;;;;;14.42;40.62;92720.38;4938459;28;20042;-82
2022/01/08 05:41:59;;;;;;;8.13;6.05;;;;;;;14.43;40.77;92718.41;4938659;28;20031;-81
2022/01/08 05:44:24;;;;;;;8.63;5.95;;;;;;;14.47;40.49;92718.88;4953820;28;20034;-81
2022/01/08 05:46:50;;;;;;;8.55;6.20;;;;;;;14.40;40.75;92717.41;4938329;28;20031;-81
2022/01/08 05:49:17;;;;;;;8.50;5.97;;;;;;;14.46;40.22;92718.16;4971034;28;20039;-81
2022/01/08 05:51:43;;;;;;;7.97;6.07;;;;;;;14.38;40.72;92717.91;4938502;28;20058;-82
2022/01/08 05:54:08;;;;;;;8.68;6.65;;;;;;;14.42;40.44;92716.91;4953345;28;20039;-82
2022/01/08 05:56:34;;;;;;;7.63;5.93;;;;;;;14.45;40.51;92719.38;4938179;28;20031;-82
2022/01/08 05:58:59;;;;;;;7.97;6.50;;;;;;;14.37;40.69;92716.41;4938183;28;20066;-82
2022/01/08 06:01:24;;;;;;;8.70;6.18;;;;;;;14.39;40.81;92715.91;4934706;28;20043;-81
2022/01/08 06:03:50;;;;;;;7.93;6.15;;;;;;;14.44;40.27;92726.06;4938240;28;20109;-81
2022/01/08 06:06:15;;;;;;;7.32;5.78;;;;;;;14.49;40.33;92713.69;4941729;28;20042;-81
2022/01/08 06:08:41;;;;;;;8.63;6.63;;;;;;;14.43;40.60;92715.69;4968790;28;20050;-81
2022/01/08 06:11:06;;;;;;;9.77;7.00;;;;;;;14.43;40.80;92712.97;4968271;28;20872;-82
2022/01/08 06:13:31;;;;;;;7.95;5.43;;;;;;;14.40;40.80;92714.69;4949188;28;20062;-81
2022/01/08 06:15:57;;;;;;;7.30;5.82;;;;;;;14.48;40.61;92707.50;4968916;28;20039;-82
2022/01/08 06:18:22;;;;;;;7.22;5.53;;;;;;;14.50;40.08;92720.59;4969380;28;20035;-81
2022/01/08 06:20:48;;;;;;;8.38;6.43;;;;;;;14.41;40.18;92713.47;4953533;28;20087;-82
2022/01/08 06:23:13;;;;;;;9.75;6.57;;;;;;;14.44;40.61;92717.91;4968975;28;20047;-81
2022/01/08 06:25:43;;;;;;;8.48;6.43;;;;;;;14.44;40.48;92723.34;4941152;28;20552;-81
2022/01/08 06:28:08;;;;;;;9.85;6.95;;;;;;;14.46;40.42;92720.13;4937691;28;20047;-82
2022/01/08 06:30:34;;;;;;;8.88;6.50;;;;;;;14.44;40.72;92709.75;4971384;28;20053;-81
2022/01/08 06:32:59;;;;;;;7.57;6.07;;;;;;;14.47;40.47;92721.59;4936760;28;20042;-82
2022/01/08 06:35:25;;;;;;;6.65;5.40;;;;;;;14.40;40.51;92707.28;4953117;28;20027;-82
2022/01/08 06:37:50;;;;;;;8.07;6.32;;;;;;;14.44;40.57;92717.91;4936971;28;20668;-82
2022/01/08 06:40:15;;;;;;;7.00;5.78;;;;;;;14.44;40.26;92714.44;4952131;28;20046;-81
2022/01/08 06:42:41;;;;;;;7.43;6.05;;;;;;;14.46;40.52;92703.81;4937128;28;20027;-82
2022/01/08 06:45:06;;;;;;;7.78;6.32;;;;;;;14.41;40.65;92705.31;4936721;28;20553;-81
2022/01/08 06:47:33;;;;;;;7.93;6.43;;;;;;;14.39;40.86;92705.78;4937271;28;20105;-81
2022/01/08 06:49:59;;;;;;;8.25;6.07;;;;;;;14.40;40.82;92709.25;4953360;28;20102;-81
2022/01/08 06:52:24;;;;;;;7.85;5.97;;;;;;;14.48;40.63;92702.06;4936230;28;20034;-81
2022/01/08 06:54:49;;;;;;;9.73;6.28;;;;;;;14.51;40.50;92708.47;4936971;28;20045;-82
2022/01/08 06:57:15;;;;;;;8.52;6.03;;;;;;;14.50;40.40;92705.03;4936136;28;20442;-82
2022/01/08 06:59:40;;;;;;;8.07;6.30;;;;;;;14.47;40.65;92718.88;4936983;28;20043;-81
2022/01/08 07:02:06;;;;;;;6.85;5.43;;;;;;;14.42;40.60;92717.66;4952256;28;20039;-82
2022/01/08 07:04:31;;;;;;;6.93;5.05;;;;;;;14.51;40.17;92713.91;4970353;28;20465;-81
2022/01/08 07:06:58;;;;;;;8.43;6.25;;;;;;;14.41;40.77;92705.31;4936004;28;20057;-82
2022/01/08 07:09:23;;;;;;;9.23;6.82;;;;;;;14.37;41.10;92710.97;4969870;28;20436;-82
2022/01/08 07:11:48;;;;;;;7.75;6.40;;;;;;;14.38;40.48;92720.59;4936267;28;20050;-82
2022/01/08 07:14:14;;;;;;;8.63;6.50;;;;;;;14.38;40.90;92715.16;4952450;28;20093;-82
2022/01/08 07:16:39;;;;;;;7.47;5.68;;;;;;;14.42;40.43;92719.66;4952779;28;20031;-82
2022/01/08 07:19:05;;;;;;;6.80;5.40;;;;;;;14.46;40.65;92720.13;4936398;28;20051;-82
2022/01/08 07:21:30;;;;;;;9.48;6.65;;;;;;;14.39;40.60;92718.63;4936646;28;20050;-81
2022/01/08 07:23:56;;;;;;;8.40;6.20;;;;;;;14.37;41.03;92715.66;4936103;28;20051;-82
2022/01/08 07:26:21;;;;;;;8.23;6.30;;;;;;;14.35;40.88;92716.16;4911755;29;20051;-82
2022/01/08 07:28:46;;;;;;;9.35;6.30;;;;;;;14.35;40.64;92710.00;4928678;29;20040;-81
2022/01/08 07:31:12;;;;;;;7.28;6.22;;;;;;;14.40;40.66;92720.88;4912105;29;20043;-81
2022/01/08 07:33:37;;;;;;;7.50;6.07;;;;;;;14.36;40.64;92714.19;4912305;29;20507;-82
2022/01/08 07:36:03;;;;;;;7.72;5.70;;;;;;;14.48;40.36;92709.50;4880623;29;20466;-81
2022/01/08 07:38:28;;;;;;;7.80;5.93;;;;;;;14.40;40.81;92712.72;4896842;29;20058;-81
2022/01/08 07:40:54;;;;;;;6.40;5.20;;;;;;;14.47;40.36;92721.59;4912325;29;20036;-81
2022/01/08 07:43:19;;;;;;;8.02;6.07;;;;;;;14.42;40.77;92716.91;4912037;29;20050;-82
2022/01/08 07:45:45;;;;;;;7.65;5.53;;;;;;;14.38;40.46;92723.31;4928346;29;20057;-81
2022/01/08 07:48:10;;;;;;;6.68;5.75;;;;;;;14.36;40.64;92716.91;4911843;29;20270;-82
2022/01/08 07:50:35;;;;;;;7.57;5.53;;;;;;;14.45;40.62;92713.19;4896264;29;20438;-82
2022/01/08 07:53:01;;;;;;;9.07;7.07;;;;;;;14.42;40.53;92706.03;4880531;29;20055;-82
2022/01/08 07:55:26;;;;;;;7.03;5.55;;;;;;;14.50;40.67;92701.56;4896427;29;20036;-82
2022/01/08 07:57:52;;;;;;;8.18;6.38;;;;;;;14.50;40.49;92691.44;4924585;28;20047;-82
2022/01/08 08:00:17;;;;;;;8.00;5.80;;;;;;;14.52;40.24;92702.53;4940653;28;20038;-82
2022/01/08 08:02:42;;;;;;;7.97;5.90;;;;;;;14.56;40.11;92702.25;4916731;29;20094;-81
2022/01/08 08:05:08;;;;;;;8.07;6.15;;;;;;;14.55;40.35;92692.63;4932206;28;20066;-82
2022/01/08 08:07:36;;;;;;;7.57;6.25;;;;;;;14.51;40.48;92703.75;4901151;29;20050;-81
2022/01/08 08:10:10;;;;;;;8.80;6.45;;;;;;;14.50;40.36;92698.84;4917701;29;20043;-82
2022/01/08 08:12:36;;;;;;;7.82;6.32;;;;;;;14.52;40.38;92688.19;4923949;28;20031;-82
2022/01/08 08:15:03;;;;;;;8.18;5.70;;;;;;;14.57;40.13;92690.88;4935009;28;20031;-82
2022/01/08 08:17:30;;;;;;;7.20;6.07;;;;;;;14.63;40.13;92691.59;4951156;28;20039;-81
2022/01/08 08:19:55;;;;;;;9.48;6.50;;;;;;;14.59;40.31;92693.84;4968871;28;20062;-81
2022/01/08 08:22:20;;;;;;;7.80;6.18;;;;;;;14.58;40.13;92695.06;4949691;28;20402;-81
2022/01/08 08:24:46;;;;;;;7.55;6.45;;;;;;;14.66;40.02;92698.75;4935315;28;20043;-82
2022/01/08 08:27:11;;;;;;;7.80;5.78;;;;;;;14.70;39.77;92690.31;4933229;28;20050;-81
2022/01/08 08:29:38;;;;;;;15.77;11.90;;;;;;;14.66;40.24;92693.31;4916889;29;20035;-82
2022/01/08 08:32:04;;;;;;;18.83;12.65;;;;;;;14.72;39.83;92694.00;4959562;28;20094;-82
2022/01/08 08:34:29;;;;;;;13.43;9.60;;;;;;;14.81;39.60;92703.84;4951577;28;20074;-82
2022/01/08 08:36:55;;;;;;;14.40;10.02;;;;;;;14.79;39.63;92706.34;4939852;28;20042;-82
2022/01/08 08:39:20;;;;;;;10.95;8.00;;;;;;;14.83;39.60;92720.41;4947027;28;20560;-82
2022/01/08 08:41:45;;;;;;;12.02;8.90;;;;;;;14.78;39.70;92707.56;4951371;28;20054;-82
2022/01/08 08:44:16;;;;;;;10.60;7.82;;;;;;;14.79;39.75;92719.94;4937804;28;20051;-82
2022/01/08 08:46:42;;;;;;;10.00;7.32;;;;;;;14.72;39.65;92718.47;4900953;29;20070;-82
2022/01/08 08:49:08;;;;;;;10.40;7.18;;;;;;;14.69;39.79;92710.63;4930069;28;20049;-83
2022/01/08 08:51:33;;;;;;;8.63;6.63;;;;;;;14.68;39.83;92717.28;4931771;28;20035;-82
2022/01/08 08:53:58;;;;;;;7.90;6.38;;;;;;;14.72;39.63;92718.47;4949740;28;20050;-82
2022/01/08 08:56:24;;;;;;;9.60;7.07;;;;;;;14.75;39.91;92716.75;4916391;28;20039;-82
2022/01/08 08:58:49;;;;;;;9.38;6.78;;;;;;;14.76;39.74;92720.94;4916363;29;20039;-82
2022/01/08 09:01:15;;;;;;;9.25;6.93;;;;;;;14.76;39.83;92720.94;4915237;29;20114;-82
2022/01/08 09:03:40;;;;;;;9.15;6.63;;;;;;;14.70;39.74;92723.72;4953679;28;20061;-82
2022/01/08 09:06:06;;;;;;;7.88;6.50;;;;;;;14.75;39.68;92716.75;4971658;28;20043;-82
2022/01/08 09:08:31;;;;;;;11.18;7.60;;;;;;;14.72;39.86;92723.91;4971820;28;20034;-82
2022/01/08 09:10:56;;;;;;;10.93;7.60;;;;;;;14.72;39.67;92713.03;4963564;28;20043;-82
2022/01/08 09:13:24;;;;;;;9.48;7.28;;;;;;;14.80;39.75;92720.69;4938656;28;20505;-82
2022/01/08 09:15:50;;;;;;;8.30;6.63;;;;;;;14.79;39.63;92719.94;4924041;28;20482;-82
2022/01/08 09:18:16;;;;;;;8.82;6.53;;;;;;;14.77;39.58;92714.25;4938535;28;20054;-82
2022/01/08 09:20:42;;;;;;;9.05;6.78;;;;;;;14.75;39.43;92720.19;4938806;28;20532;-82
2022/01/08 09:23:07;;;;;;;9.02;6.45;;;;;;;14.75;39.66;92722.91;4938369;28;20047;-82
2022/01/08 09:25:33;;;;;;;11.05;7.45;;;;;;;14.72;40.22;92725.94;4972050;28;20038;-82
2022/01/08 09:27:58;;;;;;;9.45;6.63;;;;;;;14.77;39.80;92729.84;4954808;28;20676;-82
2022/01/08 09:30:24;;;;;;;8.43;7.03;;;;;;;14.78;39.96;92740.22;4954277;28;20035;-82
2022/01/08 09:32:50;;;;;;;8.43;6.57;;;;;;;14.76;39.97;92737.25;4954250;28;20039;-83
2022/01/08 09:35:16;;;;;;;7.82;6.47;;;;;;;14.81;39.70;92752.09;4937743;28;20046;-82
2022/01/08 09:37:41;;;;;;;8.45;6.80;;;;;;;14.80;39.83;92743.19;4938510;28;20043;-82
2022/01/08 09:40:09;;;;;;;9.82;6.63;;;;;;;14.82;40.08;92756.28;4971408;28;20051;-82
2022/01/08 09:42:34;;;;;;;10.32;7.03;;;;;;;14.78;39.93;92758.53;4971710;28;20058;-82
2022/01/08 09:45:00;;;;;;;9.60;6.65;;;;;;;14.81;39.90;92752.09;4954202;28;20105;-82
2022/01/08 09:47:25;;;;;;;9.48;7.13;;;;;;;14.76;40.19;92750.88;4922331;28;20038;-82
2022/01/08 09:49:51;;;;;;;8.82;6.68;;;;;;;14.79;40.09;92762.72;4971376;28;20038;-82
2022/01/08 09:52:17;;;;;;;8.50;6.55;;;;;;;14.83;39.81;92772.09;4937733;28;20037;-82
2022/01/08 09:54:43;;;;;;;10.13;8.02;;;;;;;14.74;40.12;92766.94;4938386;28;20437;-82
2022/01/08 09:57:08;;;;;;;10.02;7.15;;;;;;;14.80;40.10;92764.94;4937961;28;20417;-82
2022/01/08 09:59:33;;;;;;;8.88;6.68;;;;;;;14.82;39.94;92770.63;4937900;28;20042;-82
2022/01/08 10:02:00;;;;;;;7.70;6.90;;;;;;;14.82;39.68;92770.63;4955603;28;20035;-82
2022/01/08 10:04:26;;;;;;;10.30;7.18;;;;;;;14.83;40.08;92755.78;4953431;28;20454;-82
2022/01/08 10:06:53;;;;;;;8.25;6.65;;;;;;;14.85;40.24;92752.56;4963694;28;20039;-82
2022/01/08 10:09:18;;;;;;;9.25;6.93;;;;;;;14.85;39.97;92744.41;4952529;28;20051;-82
2022/01/08 10:11:50;;;;;;;9.45;7.30;;;;;;;14.86;39.88;92735.72;4969832;28;20457;-82
2022/01/08 10:14:28;;;;;;;8.15;5.78;;;;;;;14.82;39.95;92729.06;4964368;28;20066;-82
2022/01/08 10:19:37;;;;;;;9.13;7.07;;;;;;;14.80;40.16;92732.31;4956208;28;20053;-82
2022/01/08 10:22:03;;;;;;;9.02;6.45;;;;;;;14.83;40.16;92736.75;4937401;28;20050;-82
2022/01/08 10:24:28;;;;;;;7.32;5.85;;;;;;;14.81;40.04;92731.06;4935136;28;20050;-82
2022/01/08 10:27:04;;;;;;;8.23;5.90;;;;;;;14.82;39.96;92718.94;4921477;28;20502;-82
2022/01/08 10:29:30;;;;;;;8.93;7.00;;;;;;;14.76;40.21;92723.66;4953532;28;20039;-82
2022/01/08 10:31:55;;;;;;;9.80;6.70;;;;;;;14.83;39.88;92723.13;4921272;28;20082;-82
2022/01/08 10:34:25;;;;;;;8.93;6.47;;;;;;;14.81;40.21;92720.16;4920894;28;20070;-81
2022/01/08 10:36:57;;;;;;;8.38;6.18;;;;;;;14.79;40.18;92721.91;4953452;28;20046;-82
2022/01/08 10:39:33;;;;;;;8.43;6.60;;;;;;;14.75;40.43;92716.75;4969988;28;20043;-82
2022/01/08 10:42:00;;;;;;;8.10;6.13;;;;;;;14.77;40.26;92710.78;4954365;28;20126;-82
2022/01/08 10:44:31;;;;;;;12.50;7.20;;;;;;;14.73;40.52;92717.25;4937087;28;20042;-82
2022/01/08 10:46:59;;;;;;;9.25;6.20;;;;;;;14.78;40.18;92709.56;4937015;28;20050;-82
2022/01/08 10:49:44;;;;;;;13.07;10.30;;;;;;;14.80;40.34;92717.94;4952642;28;20030;-82
2022/01/08 10:52:15;;;;;;;10.02;7.28;;;;;;;14.75;40.53;92720.19;4936578;28;20055;-82
2022/01/08 10:54:45;;;;;;;10.52;7.53;;;;;;;14.79;40.33;92709.06;4937651;28;20035;-82
2022/01/08 10:57:12;;;;;;;13.40;9.55;;;;;;;14.81;40.50;92712.00;4936533;28;20640;-82
2022/01/08 10:59:38;;;;;;;14.35;9.48;;;;;;;14.85;40.17;92709.75;4953634;28;20050;-82
2022/01/08 11:02:08;;;;;;;11.60;7.97;;;;;;;14.84;40.21;92713.00;4953873;28;20027;-82
2022/01/08 11:04:45;;;;;;;14.20;9.57;;;;;;;14.80;40.25;92702.38;4937492;28;20085;-82
2022/01/08 11:07:20;;;;;;;13.65;9.63;;;;;;;14.78;40.21;92704.13;4952588;28;20053;-82
2022/01/08 11:09:47;;;;;;;14.30;9.93;;;;;;;14.79;40.26;92697.44;4922104;28;20034;-82
2022/01/08 11:12:19;;;;;;;12.68;8.55;;;;;;;14.81;40.03;92695.69;4935975;28;20038;-82
2022/01/08 11:15:00;;;;;;;13.57;8.52;;;;;;;14.74;40.28;92696.97;4937999;28;20034;-82
2022/01/08 11:17:29;;;;;;;10.80;8.05;;;;;;;14.72;40.27;92696.72;4939904;28;20033;-82
2022/01/08 11:20:06;;;;;;;14.73;9.48;;;;;;;14.79;40.33;92687.28;4969948;28;20027;-82
2022/01/08 11:22:32;;;;;;;13.50;8.70;;;;;;;14.80;40.24;92696.19;4950291;28;20101;-81
2022/01/08 11:24:59;;;;;;;11.80;8.13;;;;;;;14.78;40.34;92685.81;4936156;28;20499;-82
2022/01/08 11:27:46;;;;;;;11.77;8.40;;;;;;;14.77;40.27;92672.72;4951026;28;20034;-82
2022/01/08 11:30:15;;;;;;;11.73;7.68;;;;;;;14.81;40.17;92676.63;4969852;28;20062;-82
2022/01/08 11:32:40;;;;;;;11.85;8.82;;;;;;;14.75;40.42;92679.38;4952057;28;20070;-82
2022/01/08 11:35:07;;;;;;;14.27;8.88;;;;;;;14.82;40.15;92669.97;4919829;28;20070;-82
2022/01/08 11:37:33;;;;;;;9.35;7.03;;;;;;;14.77;40.32;92680.88;4936252;28;20066;-82
2022/01/08 11:40:03;;;;;;;12.48;8.27;;;;;;;14.73;40.39;92675.69;4936735;28;20066;-82
2022/01/08 11:42:28;;;;;;;10.13;7.40;;;;;;;14.81;39.96;92668.47;4952172;28;20045;-82
2022/01/08 11:44:53;;;;;;;10.63;8.02;;;;;;;14.75;40.21;92681.38;4920524;28;20039;-82
2022/01/08 11:47:19;;;;;;;12.13;8.27;;;;;;;14.73;40.25;92670.25;4935539;28;20207;-82
2022/01/08 11:49:45;;;;;;;8.60;6.80;;;;;;;14.77;40.26;92673.44;4947995;28;20086;-82